Time;durP1;ratioP1;P1;durP2;ratioP2;P2;SDS_P1;SDS_P2;PMS_P1;PMS_P2;Temp;Humidity;BMP_temperature;BMP_pressure;BME280_temperature;BME280_humidity;BME280_pressure;Samples;Min_cycle;Max_cycle;Signal;HPM_P1;HPM_P2
2022/08/20 00:00:24;;;;;;;12.60;11.50;;;;;;;22.50;62.18;100942.56;4942195;29;20417;-71
2022/08/20 00:03:01;;;;;;;11.87;10.87;;;;;;;22.34;63.42;100957.31;4941539;29;20558;-71
2022/08/20 00:05:33;;;;;;;11.60;10.60;;;;;;;22.42;63.17;100952.63;4941647;29;20467;-71
2022/08/20 00:07:59;;;;;;;10.40;9.60;;;;;;;22.59;62.40;100941.34;4941580;29;20417;-70
2022/08/20 00:10:27;;;;;;;12.77;11.67;;;;;;;22.17;62.79;100948.13;4941467;29;20527;-71
2022/08/20 00:12:53;;;;;;;10.70;9.80;;;;;;;22.34;63.13;100950.22;4941769;29;20606;-71
2022/08/20 00:15:20;;;;;;;10.10;9.20;;;;;;;21.90;63.89;100949.13;4924950;29;20497;-71
2022/08/20 00:17:49;;;;;;;9.50;8.70;;;;;;;22.26;62.96;100946.94;4941368;29;20178;-71
2022/08/20 00:20:17;;;;;;;9.47;8.67;;;;;;;21.98;63.53;100949.72;4941784;29;20409;-70
2022/08/20 00:22:42;;;;;;;9.10;8.30;;;;;;;22.44;62.02;100948.09;4924919;29;20422;-70
2022/08/20 00:25:09;;;;;;;9.10;8.20;;;;;;;22.19;63.14;100948.06;4941043;29;20568;-70
2022/08/20 00:27:34;;;;;;;9.60;8.80;;;;;;;21.95;63.59;100950.69;4941674;29;20184;-71
2022/08/20 00:29:59;;;;;;;8.90;8.20;;;;;;;21.96;63.84;100944.47;4941177;29;20421;-71
2022/08/20 00:32:25;;;;;;;8.43;7.73;;;;;;;22.32;62.54;100941.41;4941030;29;20201;-70
2022/08/20 00:34:50;;;;;;;8.70;8.00;;;;;;;22.33;63.22;100944.94;4941385;29;20196;-71
2022/08/20 00:37:16;;;;;;;8.40;7.73;;;;;;;22.08;63.37;100939.63;4924487;29;20186;-70
2022/08/20 00:39:41;;;;;;;8.43;7.73;;;;;;;22.47;62.11;100947.13;4924400;29;20523;-70
2022/08/20 00:42:07;;;;;;;8.43;7.63;;;;;;;22.24;62.73;100946.13;4941241;29;20496;-70
2022/08/20 00:44:36;;;;;;;8.80;8.07;;;;;;;22.32;61.62;100949.38;4940082;29;20170;-71
2022/08/20 00:47:01;;;;;;;8.10;7.37;;;;;;;22.43;61.58;100950.81;4924829;29;20188;-69
2022/08/20 00:49:31;;;;;;;8.03;7.33;;;;;;;22.57;61.46;100944.97;4941581;29;20508;-69
2022/08/20 00:52:02;;;;;;;7.10;6.60;;;;;;;22.42;61.28;100949.94;4940788;29;20185;-71
2022/08/20 00:54:34;;;;;;;7.77;7.17;;;;;;;22.26;61.24;100948.72;4940785;29;20409;-70
2022/08/20 00:57:16;;;;;;;7.77;7.17;;;;;;;22.28;60.99;100946.88;4940805;29;20429;-71
2022/08/20 00:59:42;;;;;;;7.30;6.70;;;;;;;22.54;59.87;100938.88;4924624;29;20425;-71
2022/08/20 01:02:11;;;;;;;7.40;6.80;;;;;;;22.35;60.20;100937.81;4924407;29;20708;-72
2022/08/20 01:04:37;;;;;;;8.83;8.03;;;;;;;22.46;59.79;100935.63;4940592;29;20182;-70
2022/08/20 01:07:04;;;;;;;6.63;6.10;;;;;;;22.47;59.53;100937.34;4941192;29;20748;-71
2022/08/20 01:09:29;;;;;;;7.33;6.77;;;;;;;22.34;59.72;100941.38;4924015;29;20188;-71
2022/08/20 01:11:55;;;;;;;7.40;6.70;;;;;;;22.72;59.38;100941.75;4924191;29;20422;-72
2022/08/20 01:16:48;;;;;;;7.90;7.10;;;;;;;22.33;60.14;100950.25;4940584;29;20228;-71
2022/08/20 01:19:17;;;;;;;7.37;6.70;;;;;;;22.26;60.05;100948.72;4940560;29;20750;-71
2022/08/20 01:21:42;;;;;;;7.03;6.33;;;;;;;22.03;60.54;100953.94;4924872;29;20409;-70
2022/08/20 01:24:17;;;;;;;7.47;6.87;;;;;;;22.06;60.14;100947.66;4940423;29;20484;-70
2022/08/20 01:26:44;;;;;;;7.47;6.87;;;;;;;22.29;60.24;100959.25;4924200;29;20205;-71
2022/08/20 01:29:15;;;;;;;7.10;6.57;;;;;;;22.17;60.01;100950.78;4908144;29;20861;-70
2022/08/20 01:31:41;;;;;;;7.80;7.10;;;;;;;21.81;60.78;100958.22;4940365;29;20448;-71
2022/08/20 01:34:10;;;;;;;6.67;6.17;;;;;;;22.03;60.40;100956.59;4940739;29;20449;-70
2022/08/20 01:36:50;;;;;;;6.50;5.97;;;;;;;21.86;60.65;100966.91;4924027;29;20212;-71
2022/08/20 01:39:25;;;;;;;7.30;6.70;;;;;;;21.83;60.54;100967.88;4924232;29;20679;-70
2022/08/20 01:41:55;;;;;;;6.97;6.47;;;;;;;21.78;60.76;100972.47;4940471;29;20464;-71
2022/08/20 01:44:42;;;;;;;6.77;6.17;;;;;;;21.81;60.46;100975.03;4940444;29;20416;-73
2022/08/20 01:47:15;;;;;;;6.33;5.83;;;;;;;22.08;59.96;100974.16;4940474;29;20467;-71
2022/08/20 01:49:43;;;;;;;6.90;6.30;;;;;;;22.05;59.82;100972.47;4923981;29;20431;-70
2022/08/20 01:52:14;;;;;;;6.47;5.97;;;;;;;22.06;60.25;100973.34;4940400;29;20422;-71
2022/08/20 01:54:39;;;;;;;6.10;5.40;;;;;;;21.76;60.33;100974.31;4923750;29;20782;-70
2022/08/20 01:57:13;;;;;;;6.10;5.60;;;;;;;22.03;60.34;100961.91;4943207;29;20538;-71
2022/08/20 01:59:39;;;;;;;6.00;5.50;;;;;;;22.41;59.22;100968.56;4927199;29;20550;-71
2022/08/20 02:02:05;;;;;;;6.37;5.87;;;;;;;22.36;59.45;100961.66;4927364;29;20539;-71
2022/08/20 02:04:31;;;;;;;6.77;6.17;;;;;;;22.43;59.54;100959.63;4943495;29;20166;-71
2022/08/20 02:06:58;;;;;;;5.80;5.40;;;;;;;22.01;61.13;100965.53;4943797;29;20487;-71
2022/08/20 02:09:33;;;;;;;6.13;5.70;;;;;;;22.13;59.53;100957.13;4944095;29;20226;-70
2022/08/20 02:11:59;;;;;;;6.13;5.57;;;;;;;22.17;60.11;100965.88;4943748;29;20421;-71
2022/08/20 02:14:27;;;;;;;6.40;5.80;;;;;;;22.07;61.05;100981.25;4943631;29;20516;-70
2022/08/20 02:16:53;;;;;;;6.03;5.40;;;;;;;21.76;62.11;100971.66;4943606;29;20436;-71
2022/08/20 02:19:25;;;;;;;5.90;5.40;;;;;;;21.85;60.84;100976.69;4943618;29;20697;-71
2022/08/20 02:21:54;;;;;;;5.40;5.00;;;;;;;22.18;60.54;100964.94;4943597;29;20264;-71
2022/08/20 02:24:20;;;;;;;5.93;5.53;;;;;;;21.89;61.49;100972.13;4943088;29;20508;-70
2022/08/20 02:26:46;;;;;;;6.00;5.40;;;;;;;22.00;61.17;100969.09;4943861;29;20469;-71
2022/08/20 02:29:13;;;;;;;5.70;5.30;;;;;;;22.26;60.20;100964.66;4943387;29;20170;-70
2022/08/20 02:31:40;;;;;;;6.17;5.60;;;;;;;22.02;60.90;100973.44;4943427;29;20417;-71
2022/08/20 02:34:08;;;;;;;6.47;5.93;;;;;;;21.92;61.16;100976.44;4927020;29;20409;-71
2022/08/20 02:36:36;;;;;;;6.27;5.77;;;;;;;22.18;60.47;100973.78;4943175;29;20497;-70
2022/08/20 02:39:03;;;;;;;6.23;5.80;;;;;;;21.82;61.61;100971.44;4943131;29;20671;-71
2022/08/20 02:41:29;;;;;;;7.20;6.60;;;;;;;21.88;61.25;100981.03;4943681;29;20543;-71
2022/08/20 02:43:55;;;;;;;7.10;6.50;;;;;;;21.81;61.80;100983.00;4942871;29;20421;-70
2022/08/20 02:46:20;;;;;;;7.13;6.53;;;;;;;22.06;61.47;100984.81;4943007;29;20228;-70
2022/08/20 02:48:45;;;;;;;7.87;7.27;;;;;;;21.92;61.76;100982.66;4943546;29;20430;-70
2022/08/20 02:51:11;;;;;;;7.93;7.23;;;;;;;22.12;61.19;100973.13;4942953;29;20256;-70
2022/08/20 02:53:40;;;;;;;10.10;9.10;;;;;;;21.82;61.86;100976.75;4942856;29;20173;-71
2022/08/20 02:56:06;;;;;;;8.67;7.87;;;;;;;21.98;62.11;100976.25;4943413;29;20170;-72
2022/08/20 02:58:32;;;;;;;9.67;8.73;;;;;;;22.00;61.79;100971.75;4942899;29;20425;-71
2022/08/20 03:00:58;;;;;;;9.27;8.47;;;;;;;21.70;62.49;100964.78;4942722;29;20566;-70
2022/08/20 03:03:23;;;;;;;8.97;8.10;;;;;;;22.02;62.67;100972.56;4943090;29;20674;-71
2022/08/20 03:05:54;;;;;;;11.33;10.27;;;;;;;21.83;63.23;100969.69;4942851;29;20512;-70
2022/08/20 03:08:20;;;;;;;10.13;9.10;;;;;;;21.67;63.34;100971.97;4942764;29;20174;-70
2022/08/20 03:10:46;;;;;;;10.47;9.57;;;;;;;21.84;63.11;100974.94;4943323;29;20922;-71
2022/08/20 03:13:13;;;;;;;10.23;9.40;;;;;;;21.79;63.27;100974.22;4926200;29;20413;-70
2022/08/20 03:15:42;;;;;;;11.40;10.37;;;;;;;21.90;63.65;100973.00;4942610;29;20174;-70
2022/08/20 03:18:07;;;;;;;11.30;10.30;;;;;;;21.88;63.42;100970.41;4942989;29;20439;-69
2022/08/20 03:20:33;;;;;;;11.83;10.53;;;;;;;21.75;64.95;100969.06;4942474;29;20417;-70
2022/08/20 03:22:59;;;;;;;10.50;9.60;;;;;;;21.97;63.97;100963.91;4942477;29;20315;-70
2022/08/20 03:25:25;;;;;;;10.63;9.63;;;;;;;21.92;64.10;100960.53;4942296;29;20309;-70
2022/08/20 03:27:50;;;;;;;12.20;11.10;;;;;;;21.87;64.84;100969.50;4942432;29;20445;-70
2022/08/20 03:30:18;;;;;;;12.13;11.00;;;;;;;21.72;65.16;100964.72;4942696;29;20187;-70
2022/08/20 03:32:43;;;;;;;12.03;10.83;;;;;;;21.75;65.64;100969.06;4942145;29;20257;-70
2022/08/20 03:35:11;;;;;;;12.27;11.17;;;;;;;21.63;65.70;100967.69;4942314;29;20829;-70
2022/08/20 03:37:37;;;;;;;12.47;11.37;;;;;;;21.72;65.46;100972.69;4942711;29;20253;-71
2022/08/20 03:40:06;;;;;;;11.17;10.17;;;;;;;21.67;65.65;100974.63;4942042;29;20472;-70
2022/08/20 03:42:31;;;;;;;11.70;10.50;;;;;;;21.78;65.13;100977.78;4941790;29;20185;-70
2022/08/20 03:44:56;;;;;;;12.03;10.93;;;;;;;21.49;65.38;100970.78;4925830;29;20461;-70
2022/08/20 03:47:22;;;;;;;11.47;10.40;;;;;;;21.65;65.12;100976.44;4941709;29;20209;-70
2022/08/20 03:49:48;;;;;;;12.17;10.87;;;;;;;21.60;65.45;100986.38;4941816;29;20170;-70
2022/08/20 03:52:13;;;;;;;11.40;10.40;;;;;;;21.36;66.18;100988.84;4942190;29;20224;-69
2022/08/20 03:54:39;;;;;;;12.23;11.00;;;;;;;21.29;66.43;100995.25;4941797;29;20202;-69
2022/08/20 03:57:05;;;;;;;13.47;12.23;;;;;;;21.41;66.39;100997.53;4941751;29;20252;-70
2022/08/20 03:59:31;;;;;;;12.40;11.20;;;;;;;21.51;66.52;100998.97;4942042;29;20542;-70
2022/08/20 04:01:58;;;;;;;15.10;13.70;;;;;;;21.68;66.09;101000.25;4941639;29;20417;-70
2022/08/20 04:04:23;;;;;;;13.77;12.53;;;;;;;21.50;66.68;101020.22;4941538;29;20418;-70
2022/08/20 04:06:49;;;;;;;15.40;13.90;;;;;;;21.44;67.19;101018.63;4942098;29;20463;-70
2022/08/20 04:09:14;;;;;;;13.80;12.50;;;;;;;21.78;65.98;101030.84;4941537;29;20551;-70
2022/08/20 04:11:40;;;;;;;14.67;13.40;;;;;;;21.58;67.23;101025.34;4941458;29;20484;-70
2022/08/20 04:14:05;;;;;;;15.73;14.10;;;;;;;21.73;66.54;101016.91;4941707;29;20173;-70
2022/08/20 04:16:31;;;;;;;13.40;12.20;;;;;;;21.81;66.19;101019.28;4941368;29;20416;-71
2022/08/20 04:18:57;;;;;;;15.80;14.30;;;;;;;21.62;66.48;101024.31;4940629;29;20640;-70
2022/08/20 04:21:22;;;;;;;15.90;14.40;;;;;;;21.19;68.29;101019.41;4941708;29;20409;-70
2022/08/20 04:23:48;;;;;;;15.33;13.83;;;;;;;21.55;67.59;101020.13;4940959;29;20244;-70
2022/08/20 04:26:13;;;;;;;15.90;14.20;;;;;;;21.65;67.29;101021.56;4941028;29;20569;-70
2022/08/20 04:28:38;;;;;;;15.60;14.10;;;;;;;21.40;68.40;101024.97;4941854;29;20197;-69
2022/08/20 04:31:04;;;;;;;15.07;13.50;;;;;;;21.55;68.18;101031.59;4941186;29;20188;-71
2022/08/20 04:33:30;;;;;;;19.90;15.07;;;;;;;21.46;68.11;101027.44;4941151;29;20165;-69
2022/08/20 04:36:01;;;;;;;15.70;14.20;;;;;;;21.38;67.99;101026.81;4941433;29;20542;-70
2022/08/20 04:38:27;;;;;;;16.50;15.00;;;;;;;21.17;68.80;101029.16;4941000;29;20426;-70
2022/08/20 04:40:56;;;;;;;20.17;14.30;;;;;;;21.15;69.29;101033.66;4941137;29;20457;-70
2022/08/20 04:43:24;;;;;;;17.17;15.37;;;;;;;21.38;68.17;101024.16;4940827;29;20440;-71
2022/08/20 04:45:50;;;;;;;16.70;15.20;;;;;;;21.53;67.91;101029.00;4941017;29;20447;-72
2022/08/20 04:48:17;;;;;;;15.07;13.57;;;;;;;21.62;67.65;101032.28;4941340;29;20475;-71
2022/08/20 04:50:45;;;;;;;15.07;13.53;;;;;;;21.76;67.17;101029.16;4940903;29;20425;-71
2022/08/20 04:53:13;;;;;;;15.33;13.90;;;;;;;21.57;67.62;101039.50;4924410;29;20687;-71
2022/08/20 04:55:41;;;;;;;15.70;14.20;;;;;;;21.53;68.03;101044.91;4941289;29;20654;-71
2022/08/20 04:58:19;;;;;;;15.67;14.07;;;;;;;21.33;68.62;101039.34;4940796;29;20696;-71
2022/08/20 05:00:47;;;;;;;16.50;14.80;;;;;;;21.51;68.32;101046.72;4924323;29;20417;-70
2022/08/20 05:03:12;;;;;;;15.10;12.97;;;;;;;21.35;68.85;101045.44;4940581;29;20441;-69
2022/08/20 05:05:38;;;;;;;15.83;14.33;;;;;;;21.46;68.30;101035.38;4940552;29;20504;-70
2022/08/20 05:08:04;;;;;;;15.50;13.77;;;;;;;21.52;67.86;101036.97;4941083;29;20169;-70
2022/08/20 05:10:30;;;;;;;14.87;13.37;;;;;;;21.63;67.30;101039.31;4940700;29;20229;-71
2022/08/20 05:12:56;;;;;;;15.67;14.03;;;;;;;21.56;68.10;101035.13;4923942;29;20709;-71
2022/08/20 05:15:23;;;;;;;15.03;13.63;;;;;;;21.83;67.24;101030.72;4941276;29;20197;-70
2022/08/20 05:17:54;;;;;;;15.70;13.37;;;;;;;21.94;66.70;101027.72;4940545;29;20173;-69
2022/08/20 05:20:20;;;;;;;14.60;13.30;;;;;;;21.53;68.14;101029.00;4940676;29;20432;-70
2022/08/20 05:22:45;;;;;;;13.97;12.53;;;;;;;21.73;67.42;101030.16;4940907;29;20677;-70
2022/08/20 05:25:12;;;;;;;13.97;12.70;;;;;;;22.00;67.06;101030.16;4940348;29;20253;-70
2022/08/20 05:27:38;;;;;;;15.30;13.10;;;;;;;21.68;67.09;101032.94;4940712;29;20177;-69
2022/08/20 05:30:08;;;;;;;14.37;13.00;;;;;;;21.76;67.60;101034.47;4925430;29;20440;-67
2022/08/20 05:32:35;;;;;;;14.73;13.43;;;;;;;21.59;67.95;101038.53;4944131;29;20465;-69
2022/08/20 05:35:09;;;;;;;14.73;13.17;;;;;;;22.09;66.71;101035.16;4944155;29;20488;-69
2022/08/20 05:37:40;;;;;;;14.97;13.43;;;;;;;22.01;66.65;101040.75;4944227;29;20436;-70
2022/08/20 05:40:10;;;;;;;14.67;13.27;;;;;;;22.33;65.98;101045.88;4943448;29;20482;-70
2022/08/20 05:42:36;;;;;;;13.43;12.23;;;;;;;22.23;66.32;101044.44;4944118;29;20426;-70
2022/08/20 05:45:02;;;;;;;12.90;11.77;;;;;;;22.19;66.10;101043.66;4944130;29;20453;-70
2022/08/20 05:47:28;;;;;;;14.50;13.10;;;;;;;22.40;65.42;101042.09;4944140;29;20204;-70
2022/08/20 05:49:53;;;;;;;12.67;11.37;;;;;;;22.54;65.08;101044.25;4943859;29;20421;-68
2022/08/20 05:52:19;;;;;;;13.03;11.77;;;;;;;22.88;64.63;101038.59;4943839;29;20174;-68
2022/08/20 05:54:44;;;;;;;13.50;11.90;;;;;;;22.08;66.25;101044.03;4944110;29;20178;-68
2022/08/20 05:57:09;;;;;;;13.90;12.70;;;;;;;22.30;66.41;101043.31;4943754;29;20225;-70
2022/08/20 05:59:38;;;;;;;13.13;11.60;;;;;;;22.41;66.02;101045.63;4943776;29;20252;-69
2022/08/20 06:04:23;;;;;;;14.57;13.17;;;;;;;22.58;64.92;101045.03;4944336;29;20173;-69
2022/08/20 06:04:49;;;;;;;13.30;12.10;;;;;;;22.48;66.03;101044.50;4943649;29;20421;-68
2022/08/20 06:07:15;;;;;;;12.77;11.60;;;;;;;22.44;66.29;101038.41;4943800;29;20413;-69
2022/08/20 06:09:40;;;;;;;13.00;11.90;;;;;;;22.21;66.60;101044.50;4943738;29;20509;-68
2022/08/20 06:12:07;;;;;;;13.80;12.60;;;;;;;22.25;66.85;101047.94;4943879;29;20544;-69
2022/08/20 06:14:33;;;;;;;13.27;12.07;;;;;;;22.12;67.42;101050.13;4943899;29;20190;-68
2022/08/20 06:17:10;;;;;;;14.83;13.43;;;;;;;22.27;66.98;101043.41;4943536;29;20425;-69
2022/08/20 06:19:36;;;;;;;15.10;13.60;;;;;;;22.46;66.80;101041.91;4943341;29;20462;-69
2022/08/20 06:22:03;;;;;;;14.17;12.97;;;;;;;22.33;67.38;101041.41;4943343;29;20425;-70
2022/08/20 06:24:28;;;;;;;14.57;13.27;;;;;;;23.00;65.80;101045.25;4926041;29;20465;-69
2022/08/20 06:26:58;;;;;;;13.33;12.23;;;;;;;22.68;66.31;101033.16;4942685;29;20696;-70
2022/08/20 06:29:24;;;;;;;13.93;12.60;;;;;;;23.38;64.83;101037.63;4943459;29;20448;-70
2022/08/20 06:31:50;;;;;;;13.27;11.97;;;;;;;23.31;64.46;101036.16;4943111;29;20482;-70
2022/08/20 06:34:17;;;;;;;13.43;12.20;;;;;;;22.67;65.55;101044.72;4943456;29;20536;-70
2022/08/20 06:36:45;;;;;;;12.63;11.23;;;;;;;23.26;65.19;101040.78;4943238;29;20170;-70
2022/08/20 06:39:11;;;;;;;12.70;11.43;;;;;;;23.70;63.94;101046.09;4943238;29;20421;-70
2022/08/20 06:41:37;;;;;;;12.50;11.40;;;;;;;24.97;59.79;101031.88;4942812;29;20425;-70
2022/08/20 06:44:03;;;;;;;11.30;10.40;;;;;;;24.93;59.27;101035.63;4942821;29;20441;-70
2022/08/20 06:46:28;;;;;;;11.73;10.73;;;;;;;26.88;54.13;101027.75;4943022;29;20579;-70
2022/08/20 06:48:53;;;;;;;11.63;10.63;;;;;;;26.20;56.03;101031.28;4943692;29;20172;-70
2022/08/20 06:51:20;;;;;;;11.27;10.03;;;;;;;26.53;55.12;101037.63;4942985;29;20197;-70
2022/08/20 06:53:46;;;;;;;11.33;10.23;;;;;;;26.19;56.17;101034.91;4942980;29;20212;-70
2022/08/20 06:56:12;;;;;;;10.23;9.37;;;;;;;25.79;57.15;101047.59;4943433;29;20787;-70
2022/08/20 06:58:37;;;;;;;10.93;9.97;;;;;;;25.88;57.15;101049.81;4942847;29;20181;-70
2022/08/20 07:01:02;;;;;;;9.30;8.50;;;;;;;24.46;60.61;101050.13;4942729;29;20409;-70
2022/08/20 07:03:28;;;;;;;11.03;10.13;;;;;;;24.75;60.48;101047.97;4942995;29;20185;-71
2022/08/20 07:05:53;;;;;;;11.47;9.90;;;;;;;23.84;62.98;101048.22;4942801;29;20613;-70
2022/08/20 07:08:20;;;;;;;11.10;10.10;;;;;;;23.96;63.07;101056.66;4942696;29;20173;-70
2022/08/20 07:10:47;;;;;;;9.77;8.97;;;;;;;24.01;62.64;101063.53;4942981;29;20169;-70
2022/08/20 07:13:14;;;;;;;9.63;8.73;;;;;;;24.17;63.43;101063.75;4942503;29;20417;-70
2022/08/20 07:15:40;;;;;;;9.30;8.40;;;;;;;24.16;62.42;101063.81;4942343;29;20520;-70
2022/08/20 07:18:06;;;;;;;10.27;9.37;;;;;;;24.54;61.21;101066.63;4942869;29;20548;-70
2022/08/20 07:20:34;;;;;;;9.37;8.57;;;;;;;24.53;61.73;101068.44;4926241;29;20559;-71
2022/08/20 07:23:00;;;;;;;8.23;7.50;;;;;;;24.92;60.53;101072.09;4942315;29;20432;-70
2022/08/20 07:25:26;;;;;;;8.70;7.87;;;;;;;25.02;59.72;101073.41;4941989;29;20559;-69
2022/08/20 07:27:51;;;;;;;8.73;7.80;;;;;;;25.59;58.14;101075.25;4942720;29;20547;-70
2022/08/20 07:33:06;;;;;;;10.18;7.07;;;;;;;25.35;57.67;101069.28;4942305;29;20094;-69
2022/08/20 07:35:32;;;;;;;6.83;6.30;;;;;;;25.95;55.92;101076.19;4940539;29;20189;-70
2022/08/20 07:37:57;;;;;;;7.23;6.40;;;;;;;26.64;54.16;101074.50;4925478;29;20267;-70
2022/08/20 07:40:29;;;;;;;7.07;5.43;;;;;;;26.59;53.97;101071.19;4942305;29;20549;-70
2022/08/20 07:42:59;;;;;;;8.17;5.00;;;;;;;26.25;55.24;101078.28;4942131;29;20165;-70
2022/08/20 07:45:25;;;;;;;5.83;5.30;;;;;;;25.61;56.08;101085.84;4942084;29;20464;-69
2022/08/20 07:47:52;;;;;;;8.47;5.50;;;;;;;25.97;55.37;101083.19;4942128;29;20418;-70
2022/08/20 07:50:20;;;;;;;6.13;4.40;;;;;;;26.69;54.02;101088.50;4942049;29;20668;-70
2022/08/20 07:52:46;;;;;;;5.70;5.30;;;;;;;26.79;51.93;101089.78;4941433;29;20425;-71
2022/08/20 07:55:14;;;;;;;5.63;5.10;;;;;;;26.10;53.45;101093.28;4941643;29;20492;-71
2022/08/20 07:57:40;;;;;;;12.77;6.80;;;;;;;26.49;52.80;101090.38;4941247;29;20182;-70
2022/08/20 08:00:07;;;;;;;6.50;5.63;;;;;;;26.53;52.46;101094.66;4925214;29;20760;-71
2022/08/20 08:02:34;;;;;;;7.27;5.60;;;;;;;28.09;48.72;101090.69;4940853;29;20426;-69
2022/08/20 08:05:00;;;;;;;6.40;5.30;;;;;;;27.52;49.83;101092.09;4941856;29;20441;-68
2022/08/20 08:07:26;;;;;;;6.70;4.70;;;;;;;30.03;44.42;101085.78;4941597;29;20417;-68
2022/08/20 08:09:51;;;;;;;6.93;5.23;;;;;;;29.79;44.26;101090.94;4924856;29;20732;-68
2022/08/20 08:12:17;;;;;;;5.00;4.27;;;;;;;29.41;44.88;101091.63;4942072;29;20201;-69
2022/08/20 08:14:43;;;;;;;4.60;4.10;;;;;;;29.69;45.18;101096.06;4941217;29;20252;-68
2022/08/20 08:17:11;;;;;;;6.70;3.70;;;;;;;29.41;44.92;101105.06;4940717;29;20476;-69
2022/08/20 08:19:39;;;;;;;4.93;4.43;;;;;;;29.16;45.60;101100.34;4941607;29;20815;-68
2022/08/20 08:22:09;;;;;;;4.50;3.90;;;;;;;28.77;46.44;101102.75;4941421;29;20413;-69
2022/08/20 08:24:35;;;;;;;8.60;4.70;;;;;;;29.30;44.66;101099.50;4924341;29;20750;-68
2022/08/20 08:27:00;;;;;;;5.03;4.53;;;;;;;31.65;39.98;101095.19;4941616;29;20457;-70
2022/08/20 08:29:25;;;;;;;5.40;4.27;;;;;;;28.83;44.63;101109.53;4940920;29;20606;-68
2022/08/20 08:31:51;;;;;;;5.00;4.10;;;;;;;28.76;45.88;101105.53;4941055;29;20180;-70
2022/08/20 08:34:16;;;;;;;5.00;4.50;;;;;;;28.14;46.54;101106.47;4941243;29;20169;-69
2022/08/20 08:36:43;;;;;;;6.00;4.17;;;;;;;29.50;42.45;101107.16;4940977;29;20440;-70
2022/08/20 08:39:08;;;;;;;4.83;4.00;;;;;;;29.00;43.87;101104.00;4940927;29;20504;-70
2022/08/20 08:41:40;;;;;;;4.90;4.07;;;;;;;29.57;42.29;101100.41;4924994;29;20436;-70
2022/08/20 08:44:10;;;;;;;5.50;4.17;;;;;;;30.68;39.87;101100.22;4924299;29;20225;-68
2022/08/20 08:46:43;;;;;;;4.77;3.33;;;;;;;32.98;36.03;101092.31;4924602;29;20476;-67
2022/08/20 08:49:12;;;;;;;6.00;4.50;;;;;;;32.18;37.06;101092.16;4940012;29;20432;-68
2022/08/20 08:51:49;;;;;;;5.10;3.60;;;;;;;31.59;38.25;101095.59;4940946;29;20418;-67
2022/08/20 08:54:18;;;;;;;6.23;4.27;;;;;;;32.85;35.30;101092.44;4924263;29;20413;-70
2022/08/20 08:56:43;;;;;;;3.93;3.40;;;;;;;32.71;34.77;101090.81;4924596;29;20819;-69
2022/08/20 08:59:09;;;;;;;5.17;3.50;;;;;;;30.46;39.08;101095.50;4924335;29;20414;-69
2022/08/20 09:01:42;;;;;;;5.13;4.10;;;;;;;29.74;39.87;101107.38;4940858;29;20173;-69
2022/08/20 09:04:08;;;;;;;4.13;3.60;;;;;;;31.14;38.43;101101.53;4924074;29;20217;-69
2022/08/20 09:06:34;;;;;;;5.33;4.30;;;;;;;30.54;39.20;101103.91;4940311;29;20496;-69
2022/08/20 09:09:02;;;;;;;7.47;4.50;;;;;;;30.04;41.15;101118.94;4924365;29;20432;-69
2022/08/20 09:11:28;;;;;;;4.30;3.90;;;;;;;28.61;43.69;101118.88;4941098;29;20810;-70
2022/08/20 09:13:55;;;;;;;4.90;3.63;;;;;;;28.50;44.21;101118.66;4923947;29;20457;-68
2022/08/20 09:16:22;;;;;;;6.90;4.23;;;;;;;27.90;45.51;101128.34;4940565;29;20417;-69
2022/08/20 09:18:48;;;;;;;6.67;3.97;;;;;;;27.88;44.47;101130.25;4924484;29;20457;-68
2022/08/20 09:21:14;;;;;;;8.43;3.80;;;;;;;27.85;43.46;101131.31;4940480;29;20425;-68
2022/08/20 09:23:40;;;;;;;7.67;3.97;;;;;;;28.69;40.97;101126.50;4940385;29;20568;-67
2022/08/20 09:26:05;;;;;;;5.13;3.60;;;;;;;29.19;40.24;101118.97;4941067;29;20205;-69
2022/08/20 09:28:31;;;;;;;4.33;3.37;;;;;;;28.43;41.79;101130.69;4923976;29;20843;-66
2022/08/20 09:30:56;;;;;;;6.23;4.20;;;;;;;30.39;39.47;101126.41;4940280;29;20599;-68
2022/08/20 09:33:22;;;;;;;8.57;3.90;;;;;;;32.07;36.58;101121.75;4940539;29;20174;-68
2022/08/20 09:35:47;;;;;;;6.37;4.30;;;;;;;31.93;36.37;101114.69;4940192;29;20433;-68
2022/08/20 09:38:12;;;;;;;14.80;4.30;;;;;;;29.81;40.31;101121.28;4940476;29;20183;-68
2022/08/20 09:40:38;;;;;;;6.70;4.07;;;;;;;30.22;39.24;101120.38;4941077;29;20174;-68
2022/08/20 09:43:05;;;;;;;5.83;3.70;;;;;;;29.23;40.99;101120.50;4940085;29;20274;-69
2022/08/20 09:45:30;;;;;;;5.03;3.70;;;;;;;30.69;38.21;101126.19;4923823;29;20204;-68
2022/08/20 09:47:56;;;;;;;6.07;3.70;;;;;;;30.51;38.67;101117.56;4940557;29;20496;-68
2022/08/20 09:50:21;;;;;;;5.83;3.70;;;;;;;29.82;40.10;101125.69;4939572;29;20244;-67
2022/08/20 09:52:49;;;;;;;5.10;3.27;;;;;;;30.10;39.98;101125.72;4940102;29;20257;-68
2022/08/20 09:55:27;;;;;;;7.17;3.83;;;;;;;29.10;40.64;101116.84;4924240;29;20246;-68
2022/08/20 09:57:53;;;;;;;6.90;3.83;;;;;;;31.61;35.97;101117.06;4923547;29;20422;-68
2022/08/20 10:00:18;;;;;;;11.73;4.00;;;;;;;31.68;36.36;101115.66;4939286;29;20426;-67
2022/08/20 10:02:44;;;;;;;6.70;3.70;;;;;;;30.65;37.91;101126.50;4923281;29;20197;-68
2022/08/20 10:05:10;;;;;;;4.97;3.33;;;;;;;29.79;39.52;101123.19;4939741;29;20244;-68
2022/08/20 10:07:37;;;;;;;4.63;3.30;;;;;;;29.74;39.23;101125.31;4940575;29;20201;-69
2022/08/20 10:10:03;;;;;;;7.70;3.97;;;;;;;30.02;39.20;101128.91;4940086;29;20232;-69
2022/08/20 10:12:28;;;;;;;5.63;3.60;;;;;;;29.84;39.37;101130.97;4939942;29;20815;-69
2022/08/20 10:14:54;;;;;;;5.00;3.50;;;;;;;29.74;39.79;101136.94;4940457;29;20201;-69
2022/08/20 10:17:19;;;;;;;9.93;4.03;;;;;;;31.11;37.97;101131.38;4941490;29;20256;-68
2022/08/20 10:19:45;;;;;;;6.90;3.97;;;;;;;31.86;36.57;101130.44;4943539;29;20465;-68
2022/08/20 10:22:10;;;;;;;6.17;3.57;;;;;;;32.47;35.31;101120.56;4943997;29;20474;-69
2022/08/20 10:24:36;;;;;;;5.43;3.80;;;;;;;31.53;36.84;101131.94;4943141;29;20221;-69
2022/08/20 10:27:01;;;;;;;6.70;3.90;;;;;;;31.85;36.60;101133.28;4943358;29;20210;-69
2022/08/20 10:29:28;;;;;;;6.43;4.30;;;;;;;31.39;37.39;101132.06;4943604;29;20244;-70
2022/08/20 10:31:55;;;;;;;7.90;3.90;;;;;;;30.89;38.33;101138.25;4943229;29;20177;-67
2022/08/20 10:34:21;;;;;;;5.50;3.80;;;;;;;30.51;39.14;101139.09;4943082;29;20421;-69
2022/08/20 10:36:47;;;;;;;9.10;3.87;;;;;;;29.44;40.01;101126.34;4943455;29;20561;-69
2022/08/20 10:39:12;;;;;;;6.50;3.47;;;;;;;29.46;39.88;101131.59;4943038;29;20539;-69
2022/08/20 10:41:37;;;;;;;5.27;3.40;;;;;;;29.34;39.86;101138.63;4943034;29;20174;-69
2022/08/20 10:44:03;;;;;;;5.17;3.70;;;;;;;29.51;39.25;101138.44;4943090;29;20571;-67
2022/08/20 10:46:28;;;;;;;7.73;4.13;;;;;;;29.76;37.42;101144.91;4942811;29;20464;-69
2022/08/20 10:48:54;;;;;;;4.83;3.07;;;;;;;28.78;38.75;101152.78;4942885;29;20181;-70
2022/08/20 10:51:19;;;;;;;5.93;3.70;;;;;;;29.31;38.24;101144.19;4943292;29;20169;-68
2022/08/20 10:53:45;;;;;;;5.30;3.83;;;;;;;27.84;42.33;101164.41;4942018;29;20632;-70
2022/08/20 10:56:10;;;;;;;6.60;4.40;;;;;;;27.73;43.82;101164.16;4942825;29;20165;-68
2022/08/20 10:58:36;;;;;;;7.97;4.30;;;;;;;28.01;43.16;101167.97;4943234;29;20249;-69
2022/08/20 11:01:01;;;;;;;8.60;4.10;;;;;;;27.68;43.26;101164.38;4942566;29;20182;-67
2022/08/20 11:03:26;;;;;;;8.63;4.27;;;;;;;27.71;42.97;101164.25;4941945;29;20169;-69
2022/08/20 11:05:52;;;;;;;5.83;4.13;;;;;;;27.86;42.66;101170.53;4942804;29;20494;-69
2022/08/20 11:08:17;;;;;;;7.17;3.90;;;;;;;27.67;43.29;101161.81;4942419;29;20189;-69
2022/08/20 11:10:42;;;;;;;8.80;4.20;;;;;;;28.31;40.14;101164.50;4942468;29;20180;-68
2022/08/20 11:13:08;;;;;;;4.80;3.70;;;;;;;28.88;38.65;101164.66;4942767;29;20245;-68
2022/08/20 11:15:39;;;;;;;4.63;3.70;;;;;;;27.75;40.96;101172.09;4942406;29;20169;-69
2022/08/20 11:18:04;;;;;;;5.80;3.67;;;;;;;27.89;41.46;101174.88;4942502;29;20507;-68
2022/08/20 11:20:30;;;;;;;5.43;3.83;;;;;;;28.71;39.77;101170.19;4942595;29;20530;-68
2022/08/20 11:22:56;;;;;;;5.67;3.60;;;;;;;27.97;41.75;101166.38;4942286;29;20181;-69